Yelizovo Airport
UHPP : now visible

Airfield :











YOU CAN JOIN US ON...

 
LOGIN :

Register | Disclaimer

   EN    FR    IT 

 









Legend :    VFR   Marginal VFR   IFR   Intensive IFR   Very Intensive IFR
Visi :
Ceiling :
>= 8 km
>= 3000ft
5 to 8 km
1000 to 3000 ft
1500m to 5 km
500 to 1000 ft
800 to 1500m
200 to 500 ft
< 800m
< 200 ft
Symbols :   Thunderstorms  Fog  Heavy snow  Heavy precipitations  Wind > 20 kt






- Airport Elevation : 131 ft
- IATA code : PKC


UHPP - Yelizovo

CURRENT METAR :
  • 241600Z 15006MPS 9999 -SHRA OVC031CB 04/03 Q1015 R16R/290155 NOSIG RMK QFE758/1011

EXPIRED METARs :
  • 241500Z 16005MPS 9999 -SHRA OVC037CB 04/03 Q1016 R16R/290155 NOSIG RMK QFE759/1012
  • 241400Z 13006MPS 9999 -SHRA SCT015 OVC037CB 04/03 Q1017 R16R/290155 NOSIG RMK QFE760/1013

TAF TAF UHPP
Valid from the 24 at 15:00 until the 25 at 21:00 UTC


241354Z 2415/2521 14010G17MPS 5000 -SHRA BKN007 OVC015CB
TEMPO 2415/2506 10015G25MPS 2000 SHRA
FM250600 05003G12MPS 9999 BKN020CB OVC050
TEMPO 2506/2521 1000 SHRASN VV003
UHPP FIR / Asia



MET'MAP, your aeronautical weather chart ! - Copyright ORBIFLY December 2007 - Disclaimer

ORBIFLY MET'MAP TEAM :

Programming & Development : Alexandra Zaïnal
Concept & original design : Baudouin d'Aumeries
Assistance for programming : Marc-Olivier Méhu
Technical & hardware support : Manuel Goepfert

Contact : metmap@orbifly.com




SOURCES & CREDITS :

   NOAA       Earth
Advisory